This is the latest recevied weather packets stored in our database for station/object KE4LOJ. If no packets are shown the sender has not sent any weather packets the latest 10 day(s).
| Time | Temp. | Humidity | Pressure | Rain* | Wind** | Luminosity | Snow |
|---|---|---|---|---|---|---|---|
| 1777485948 | 30.56° C | 50% | 1015.8 hPa | 0 mm | - | 879 W/m² | - |
| 1777485644 | 31.11° C | 50% | 1015.7 hPa | 0 mm | - | 901 W/m² | - |
| 1777485339 | 31.11° C | 48% | 1015.8 hPa | 0 mm | - | 882 W/m² | - |
| 1777485036 | 30° C | 52% | 1015.8 hPa | 0 mm | - | 789 W/m² | - |
| 1777484733 | 29.44° C | 54% | 1015.9 hPa | 0 mm | - | 726 W/m² | - |
| 1777484429 | 30° C | 54% | 1015.9 hPa | 0 mm | - | 730 W/m² | - |
| 1777484126 | 30° C | 54% | 1016.2 hPa | 0 mm | - | 749 W/m² | - |
| 1777483822 | 29.44° C | 56% | 1016.2 hPa | 0 mm | - | 826 W/m² | - |
| 1777483519 | 29.44° C | 56% | 1016.1 hPa | 0 mm | - | 297 W/m² | - |
| 1777483214 | 29.44° C | 57% | 1016.3 hPa | 0 mm | - | 521 W/m² | - |
| 1777482911 | 29.44° C | 56% | 1016.5 hPa | 0 mm | - | 390 W/m² | - |
| 1777482606 | 28.89° C | 56% | 1016.4 hPa | 0 mm | - | 716 W/m² | - |
| 1777482304 | 28.89° C | 57% | 1016.5 hPa | 0 mm | - | 715 W/m² | - |
| 1777482001 | 28.89° C | 58% | 1016.4 hPa | 0 mm | - | 780 W/m² | - |
| 1777481699 | 29.44° C | 57% | 1016.5 hPa | 0 mm | - | 766 W/m² | - |
| 1777481395 | 30° C | 56% | 1016.7 hPa | 0 mm | - | 595 W/m² | - |
| 1777481091 | 29.44° C | 57% | 1016.8 hPa | 0 mm | - | 789 W/m² | - |
| 1777480788 | 30° C | 57% | 1016.9 hPa | 0 mm | - | 779 W/m² | - |
| 1777480485 | 30° C | 56% | 1017.1 hPa | 0 mm | - | 809 W/m² | - |
| 1777480181 | 30° C | 57% | 1016.9 hPa | 0 mm | - | 804 W/m² | - |
| 1777479878 | 29.44° C | 58% | 1016.9 hPa | 0 mm | - | 792 W/m² | - |
| 1777479575 | 28.33° C | 60% | 1017.1 hPa | 0 mm | - | 783 W/m² | - |
| 1777479273 | 28.33° C | 61% | 1017.1 hPa | 0 mm | - | 744 W/m² | - |
| 1777478969 | 28.33° C | 60% | 1017.3 hPa | 0 mm | - | 750 W/m² | - |
| 1777478666 | 28.89° C | 59% | 1017.5 hPa | 0 mm | - | 290 W/m² | - |
* Rain latest hour (hover to see other rain measurements)
** Current wind speed in m/s (hover to see current wind gust speed)